createdAt,value
2023-01-17T00:00:09.402Z,863.52
2023-01-17T00:00:20.511Z,863.55
2023-01-17T00:00:32.476Z,863.66
2023-01-17T00:00:44.413Z,863.55
2023-01-17T00:00:56.422Z,863.60
2023-01-17T00:01:07.387Z,863.51
2023-01-17T00:01:18.465Z,863.47
2023-01-17T00:01:30.388Z,863.62
2023-01-17T00:01:41.452Z,863.68
2023-01-17T00:01:53.460Z,863.59
2023-01-17T00:02:04.429Z,863.65
2023-01-17T00:02:15.399Z,863.54
2023-01-17T00:02:26.530Z,863.49
2023-01-17T00:02:37.436Z,863.51
2023-01-17T00:02:49.421Z,863.57
2023-01-17T00:03:00.438Z,863.60
2023-01-17T00:03:11.408Z,863.36
2023-01-17T00:03:22.370Z,863.39
2023-01-17T00:03:33.429Z,863.52
2023-01-17T00:03:44.423Z,863.57
2023-01-17T00:03:55.410Z,863.53
2023-01-17T00:04:06.425Z,863.42
2023-01-17T00:04:17.391Z,863.56
2023-01-17T00:04:29.407Z,863.38
2023-01-17T00:04:41.427Z,863.48
2023-01-17T00:04:53.428Z,863.64
2023-01-17T00:05:04.398Z,863.58
2023-01-17T00:05:15.461Z,863.50
2023-01-17T00:05:27.368Z,863.41
2023-01-17T00:05:38.422Z,863.21
2023-01-17T00:05:49.379Z,863.58
2023-01-17T00:06:01.391Z,863.42
2023-01-17T00:06:12.450Z,863.37
2023-01-17T00:06:24.462Z,863.45
2023-01-17T00:06:36.460Z,863.37
2023-01-17T00:06:48.368Z,863.46
2023-01-17T00:06:59.425Z,863.39
2023-01-17T00:07:11.437Z,863.38
2023-01-17T00:07:22.393Z,863.38
2023-01-17T00:07:34.404Z,863.17
2023-01-17T00:07:45.464Z,863.05
2023-01-17T00:07:57.396Z,863.04
2023-01-17T00:08:09.410Z,863.20
2023-01-17T00:08:20.377Z,863.48
2023-01-17T00:08:32.388Z,863.39
2023-01-17T00:08:43.390Z,863.23
2023-01-17T00:08:55.398Z,863.28
2023-01-17T00:09:07.406Z,863.25
2023-01-17T00:09:19.419Z,863.30
2023-01-17T00:09:31.490Z,863.27
2023-01-17T00:09:43.419Z,863.15
2023-01-17T00:09:54.386Z,863.05
2023-01-17T00:11:42.452Z,862.92
2023-01-17T00:11:54.465Z,862.89
2023-01-17T00:12:05.436Z,862.97
2023-01-17T00:12:16.387Z,862.95
2023-01-17T00:12:28.406Z,862.83
2023-01-17T00:12:40.426Z,862.84
2023-01-17T00:16:07.491Z,862.73
2023-01-17T00:16:18.414Z,862.69
2023-01-17T00:16:29.452Z,862.69
2023-01-17T00:16:41.465Z,862.64
2023-01-17T00:16:52.419Z,862.80
2023-01-17T00:17:04.429Z,862.69
2023-01-17T00:17:16.428Z,862.79
2023-01-17T00:17:27.393Z,862.76
2023-01-17T00:21:03.433Z,862.09
2023-01-17T00:21:15.439Z,862.15
2023-01-17T00:21:27.443Z,862.09
2023-01-17T00:25:23.470Z,862.02
2023-01-17T00:25:35.373Z,862.10
2023-01-17T00:25:46.425Z,861.96
2023-01-17T00:25:57.418Z,861.83
2023-01-17T00:26:08.469Z,861.78
2023-01-17T00:26:20.396Z,861.78
2023-01-17T00:26:31.462Z,861.73
2023-01-17T00:26:43.399Z,861.88
2023-01-17T00:26:55.399Z,861.75
2023-01-17T00:27:07.412Z,861.74
2023-01-17T00:27:19.428Z,861.81
2023-01-17T00:27:31.446Z,861.65
2023-01-17T00:27:42.419Z,861.54
2023-01-17T00:27:54.420Z,861.54
2023-01-17T00:28:05.399Z,861.62
2023-01-17T00:28:16.456Z,861.62
2023-01-17T00:28:27.420Z,861.56
2023-01-17T00:28:38.379Z,861.62
2023-01-17T00:28:49.440Z,861.61
2023-01-17T00:29:00.406Z,861.39
2023-01-17T00:29:11.368Z,861.39
2023-01-17T00:29:22.424Z,861.65
2023-01-17T00:29:33.391Z,861.68
2023-01-17T00:29:45.397Z,861.67
2023-01-17T00:29:56.455Z,861.78
2023-01-17T00:30:07.416Z,861.64
2023-01-17T00:30:18.377Z,861.59
2023-01-17T00:30:29.424Z,861.73
2023-01-17T00:30:41.440Z,861.79
2023-01-17T00:30:52.405Z,861.76
2023-01-17T00:31:03.404Z,861.73
2023-01-17T00:31:14.393Z,861.73
2023-01-17T00:31:25.470Z,861.67
2023-01-17T00:31:36.391Z,861.71
2023-01-17T00:31:47.463Z,861.71
2023-01-17T00:31:58.414Z,861.56
2023-01-17T00:32:09.385Z,861.52
2023-01-17T00:32:20.421Z,861.63
2023-01-17T00:32:32.470Z,861.99
2023-01-17T00:32:43.420Z,862.15
2023-01-17T00:32:55.424Z,861.70
2023-01-17T00:33:07.440Z,861.75
2023-01-17T00:33:19.456Z,861.54
2023-01-17T00:33:31.471Z,861.74
2023-01-17T00:33:42.426Z,861.75
2023-01-17T00:33:54.435Z,861.61
2023-01-17T00:34:06.441Z,861.62
2023-01-17T00:34:18.459Z,861.59
2023-01-17T00:34:30.394Z,861.42
2023-01-17T00:34:41.456Z,861.68
2023-01-17T00:34:52.411Z,861.57
2023-01-17T00:35:03.373Z,861.47
2023-01-17T00:35:14.436Z,861.74
2023-01-17T00:35:26.471Z,861.67
2023-01-17T00:35:38.390Z,861.63
2023-01-17T00:35:49.461Z,861.67
2023-01-17T00:36:01.397Z,861.66
2023-01-17T00:36:12.441Z,861.61
2023-01-17T00:36:24.453Z,861.60
2023-01-17T00:36:35.422Z,861.57
2023-01-17T00:36:46.378Z,861.55
2023-01-17T00:36:58.392Z,861.58
2023-01-17T00:37:09.449Z,861.40
2023-01-17T00:37:21.361Z,861.36
2023-01-17T00:37:32.410Z,861.36
2023-01-17T00:37:44.428Z,861.22
2023-01-17T00:37:56.452Z,861.18
2023-01-17T00:38:07.427Z,861.23
2023-01-17T00:38:18.386Z,861.23
2023-01-17T00:38:30.403Z,861.28
2023-01-17T00:38:41.464Z,861.30
2023-01-17T00:38:53.399Z,861.35
2023-01-17T00:39:05.413Z,861.60
2023-01-17T00:39:17.422Z,861.46
2023-01-17T00:39:28.380Z,861.38
2023-01-17T00:39:40.393Z,861.41
2023-01-17T00:39:52.400Z,861.41
2023-01-17T00:40:04.416Z,861.29
2023-01-17T00:40:15.377Z,861.22
2023-01-17T00:40:26.447Z,861.36
2023-01-17T00:40:37.416Z,861.19
2023-01-17T00:40:49.431Z,860.94
2023-01-17T00:41:00.401Z,861.18
2023-01-17T00:41:11.375Z,861.58
2023-01-17T00:41:22.419Z,861.38
2023-01-17T00:41:34.425Z,861.28
2023-01-17T00:41:45.409Z,861.37
2023-01-17T00:41:56.380Z,861.13
2023-01-17T00:42:07.423Z,860.87
2023-01-17T00:42:19.438Z,860.77
2023-01-17T00:42:31.457Z,860.78
2023-01-17T00:42:42.419Z,861.12
2023-01-17T00:42:53.380Z,861.47
2023-01-17T00:48:38.456Z,860.74
2023-01-17T00:48:50.361Z,860.56
2023-01-17T00:49:01.428Z,860.50
2023-01-17T00:49:12.417Z,860.49
2023-01-17T00:57:41.464Z,860.03
2023-01-17T01:07:16.403Z,858.60
2023-01-17T01:07:27.385Z,858.87
2023-01-17T01:07:38.363Z,859.41
2023-01-17T01:07:49.425Z,859.47
2023-01-17T01:08:00.383Z,859.23
2023-01-17T01:08:12.396Z,859.27
2023-01-17T01:08:23.371Z,859.36
2023-01-17T01:08:35.387Z,859.21
2023-01-17T01:08:47.408Z,859.17
2023-01-17T01:08:58.364Z,859.27
2023-01-17T01:09:09.434Z,859.23
2023-01-17T01:09:21.434Z,859.23
2023-01-17T01:15:51.450Z,858.71
2023-01-17T01:16:03.478Z,858.97
2023-01-17T01:16:15.419Z,859.43
2023-01-17T01:16:26.414Z,859.16
2023-01-17T01:16:37.475Z,859.10
2023-01-17T01:16:48.456Z,859.39
2023-01-17T01:17:00.385Z,859.18
2023-01-17T01:17:11.465Z,859.14
2023-01-17T01:17:22.415Z,859.32
2023-01-17T01:17:33.376Z,859.26
2023-01-17T01:17:44.459Z,859.53
2023-01-17T01:17:56.381Z,859.43
2023-01-17T01:18:08.401Z,859.38
2023-01-17T01:18:19.360Z,859.41
2023-01-17T01:18:30.441Z,859.58
2023-01-17T01:18:41.400Z,859.45
2023-01-17T01:18:52.459Z,859.48
2023-01-17T01:19:04.456Z,859.33
2023-01-17T01:19:16.392Z,859.49
2023-01-17T01:23:07.380Z,858.29
2023-01-17T01:23:19.388Z,858.16
2023-01-17T01:23:31.393Z,857.96
2023-01-17T01:23:43.392Z,857.85
2023-01-17T01:23:55.397Z,857.93
2023-01-17T01:24:06.371Z,857.98
2023-01-17T01:24:17.375Z,857.74
2023-01-17T01:24:28.438Z,857.38
2023-01-17T01:24:40.432Z,857.85
2023-01-17T01:24:51.423Z,857.94
2023-01-17T01:25:03.434Z,858.11
2023-01-17T01:25:15.431Z,857.86
2023-01-17T01:25:26.394Z,857.67
2023-01-17T01:25:38.401Z,857.74
2023-01-17T01:25:50.407Z,857.48
2023-01-17T01:26:01.455Z,857.49
2023-01-17T01:26:13.424Z,858.05
2023-01-17T01:26:24.396Z,857.64
2023-01-17T01:26:35.468Z,858.00
2023-01-17T01:26:46.414Z,857.99
2023-01-17T01:26:57.373Z,857.97
2023-01-17T01:27:08.440Z,857.62
2023-01-17T01:28:26.447Z,857.68
2023-01-17T01:28:37.415Z,857.59
2023-01-17T01:28:48.377Z,857.51
2023-01-17T01:28:59.435Z,857.40
2023-01-17T01:29:10.402Z,857.39
2023-01-17T01:29:21.457Z,857.34
2023-01-17T01:29:33.371Z,857.39
2023-01-17T01:29:44.416Z,857.17
2023-01-17T01:29:56.432Z,856.84
2023-01-17T01:30:07.397Z,857.06
2023-01-17T01:30:19.421Z,857.30
2023-01-17T01:30:30.384Z,857.14
2023-01-17T01:30:42.392Z,856.90
2023-01-17T01:30:54.405Z,856.86
2023-01-17T01:31:06.419Z,857.14
2023-01-17T01:31:18.467Z,857.17
2023-01-17T01:31:30.442Z,856.91
2023-01-17T01:34:57.418Z,856.34
2023-01-17T01:35:08.377Z,856.47
2023-01-17T01:35:19.421Z,856.45
2023-01-17T01:35:30.377Z,856.20
2023-01-17T01:35:41.443Z,856.41
2023-01-17T01:35:53.443Z,857.14
2023-01-17T01:36:05.452Z,856.48
2023-01-17T01:36:16.434Z,856.23
2023-01-17T01:36:27.392Z,856.25
2023-01-17T01:36:38.383Z,856.53
2023-01-17T01:36:49.391Z,855.74
2023-01-17T01:37:00.468Z,855.67
2023-01-17T01:38:18.473Z,855.67
2023-01-17T01:38:30.398Z,855.53
2023-01-17T01:38:41.457Z,855.26
2023-01-17T01:38:53.399Z,855.45
2023-01-17T01:39:05.405Z,855.74
2023-01-17T01:39:17.446Z,856.12
2023-01-17T01:39:28.388Z,856.71
2023-01-17T01:39:40.393Z,856.59
2023-01-17T01:39:52.400Z,856.10
2023-01-17T01:40:03.401Z,856.06
2023-01-17T01:40:14.446Z,856.22
2023-01-17T01:40:26.394Z,856.09
2023-01-17T01:41:50.365Z,856.11
2023-01-17T01:42:01.413Z,855.59
2023-01-17T01:42:12.372Z,855.58
2023-01-17T01:42:24.378Z,855.31
2023-01-17T01:42:35.440Z,854.71
2023-01-17T01:42:47.450Z,855.16
2023-01-17T01:42:59.384Z,855.42
2023-01-17T01:43:11.394Z,855.46
2023-01-17T01:43:23.393Z,855.71
2023-01-17T01:43:34.371Z,855.79
2023-01-17T01:43:46.417Z,856.00
2023-01-17T01:43:58.401Z,855.95
2023-01-17T01:44:10.412Z,855.75
2023-01-17T01:44:22.411Z,855.51
2023-01-17T01:44:33.373Z,855.40
2023-01-17T01:44:44.419Z,855.53
2023-01-17T01:44:56.435Z,855.27
2023-01-17T01:45:07.393Z,855.17
2023-01-17T01:45:19.403Z,855.41
2023-01-17T01:45:31.488Z,855.18
2023-01-17T01:45:42.437Z,855.00
2023-01-17T01:45:53.457Z,855.13
2023-01-17T01:46:05.451Z,855.28
2023-01-17T01:46:17.387Z,855.69
2023-01-17T01:46:28.387Z,855.63
2023-01-17T01:46:39.445Z,855.19
2023-01-17T01:48:14.428Z,854.90
2023-01-17T01:48:26.448Z,854.99
2023-01-17T01:48:37.401Z,855.12
2023-01-17T01:48:49.420Z,855.39
2023-01-17T01:49:00.382Z,855.58
2023-01-17T01:49:11.368Z,855.45
2023-01-17T01:49:22.428Z,855.16
2023-01-17T01:49:34.432Z,855.46
2023-01-17T01:49:46.451Z,855.37
2023-01-17T01:49:57.421Z,855.44
2023-01-17T01:50:08.390Z,855.30
2023-01-17T01:50:19.457Z,855.21
2023-01-17T01:50:31.373Z,855.41
2023-01-17T01:50:43.388Z,855.36
2023-01-17T01:50:54.375Z,855.51
2023-01-17T01:51:05.426Z,855.45
2023-01-17T01:51:17.399Z,855.38
2023-01-17T01:51:28.364Z,855.42
2023-01-17T01:51:39.417Z,855.50
2023-01-17T01:51:50.372Z,855.42
2023-01-17T01:52:01.440Z,855.41
2023-01-17T01:52:12.398Z,855.39
2023-01-17T01:52:24.393Z,855.73
2023-01-17T01:52:36.406Z,855.57
2023-01-17T01:52:48.412Z,855.40
2023-01-17T01:53:00.432Z,855.20
2023-01-17T01:53:12.429Z,855.04
2023-01-17T01:53:23.395Z,854.98
2023-01-17T02:00:28.434Z,853.71
2023-01-17T02:00:39.420Z,853.17
2023-01-17T02:00:50.511Z,852.87
2023-01-17T02:01:01.545Z,853.07
2023-01-17T02:01:13.562Z,853.34
2023-01-17T02:01:25.548Z,853.36
2023-01-17T02:01:37.591Z,853.35
2023-01-17T02:01:49.489Z,853.38
2023-01-17T02:02:00.418Z,853.37
2023-01-17T02:02:11.373Z,853.34
2023-01-17T02:02:23.389Z,853.27
2023-01-17T02:02:35.406Z,853.29
2023-01-17T02:02:46.374Z,853.00
2023-01-17T02:02:57.411Z,852.99
2023-01-17T02:03:08.377Z,852.85
2023-01-17T02:03:20.401Z,852.73
2023-01-17T02:04:37.407Z,853.27
2023-01-17T02:04:48.387Z,852.73
2023-01-17T02:04:59.363Z,853.19
2023-01-17T02:05:10.420Z,852.91
2023-01-17T02:05:21.374Z,852.60
2023-01-17T02:05:33.379Z,852.65
2023-01-17T02:07:07.427Z,853.25
2023-01-17T02:07:19.427Z,853.23
2023-01-17T02:07:31.445Z,852.92
2023-01-17T02:07:43.382Z,852.62
2023-01-17T02:07:54.454Z,852.73
2023-01-17T02:08:05.408Z,852.52
2023-01-17T02:08:17.418Z,852.37
2023-01-17T02:08:28.392Z,852.41
2023-01-17T02:08:40.398Z,852.66
2023-01-17T02:08:52.406Z,852.43
2023-01-17T02:09:04.413Z,852.53
2023-01-17T02:09:16.435Z,852.73
2023-01-17T02:11:51.441Z,853.07
2023-01-17T02:12:02.417Z,853.09
2023-01-17T02:12:13.374Z,852.69
2023-01-17T02:12:25.381Z,852.86
2023-01-17T02:12:37.396Z,852.97
2023-01-17T02:12:49.420Z,853.04
2023-01-17T02:13:00.368Z,853.04
2023-01-17T02:13:11.410Z,853.02
2023-01-17T02:13:23.375Z,853.01
2023-01-17T02:13:34.443Z,852.97
2023-01-17T02:13:45.411Z,852.93
2023-01-17T02:13:56.371Z,853.09
2023-01-17T02:14:08.376Z,853.04
2023-01-17T02:14:20.393Z,853.00
2023-01-17T02:14:32.403Z,852.57
2023-01-17T02:14:43.449Z,852.64
2023-01-17T02:14:55.450Z,852.41
2023-01-17T02:15:07.372Z,852.56
2023-01-17T02:15:18.420Z,852.61
2023-01-17T02:15:29.376Z,852.97
2023-01-17T02:15:41.375Z,852.66
2023-01-17T02:15:53.386Z,852.91
2023-01-17T02:16:05.433Z,852.39
2023-01-17T02:16:16.426Z,852.45
2023-01-17T02:16:27.562Z,852.73
2023-01-17T02:16:38.569Z,852.30
2023-01-17T02:16:50.453Z,852.27
2023-01-17T02:17:01.408Z,852.53
2023-01-17T02:17:12.374Z,851.81
2023-01-17T02:17:23.440Z,852.29
2023-01-17T02:17:34.393Z,852.24
2023-01-17T02:17:46.408Z,852.19
2023-01-17T02:17:57.372Z,852.18
2023-01-17T02:18:08.419Z,851.54
2023-01-17T02:19:55.407Z,852.33
2023-01-17T02:20:06.455Z,852.02
2023-01-17T02:20:18.363Z,851.68
2023-01-17T02:23:47.391Z,851.50
2023-01-17T02:23:58.449Z,851.43
2023-01-17T02:24:09.421Z,851.89
2023-01-17T02:24:20.384Z,851.82
2023-01-17T02:24:32.409Z,851.61
2023-01-17T02:24:43.367Z,851.91
2023-01-17T02:24:54.433Z,852.07
2023-01-17T02:25:05.395Z,851.73
2023-01-17T02:25:17.407Z,851.77
2023-01-17T02:25:29.423Z,851.85
2023-01-17T02:25:42.165Z,851.83
2023-01-17T02:25:51.437Z,851.74
2023-01-17T02:28:12.415Z,851.56
2023-01-17T02:28:24.425Z,851.40
2023-01-17T02:28:36.433Z,851.15
2023-01-17T02:28:48.378Z,851.15
2023-01-17T02:29:00.384Z,851.18
2023-01-17T02:29:12.389Z,850.96
2023-01-17T02:29:24.389Z,851.08
2023-01-17T02:29:36.389Z,851.09
2023-01-17T02:29:47.455Z,850.96
2023-01-17T02:30:07.148Z,850.78
2023-01-17T02:30:10.360Z,851.24
2023-01-17T02:30:21.444Z,850.94
2023-01-17T02:30:32.406Z,851.36
2023-01-17T02:30:43.372Z,851.67
2023-01-17T02:30:54.435Z,851.35
2023-01-17T02:31:05.408Z,850.83
2023-01-17T02:31:17.471Z,851.16
2023-01-17T02:31:29.408Z,851.05
2023-01-17T02:31:40.412Z,850.96
2023-01-17T02:31:51.434Z,850.88
2023-01-17T02:32:02.391Z,850.75
2023-01-17T02:32:14.383Z,850.74
2023-01-17T02:32:26.389Z,850.88
2023-01-17T02:32:38.398Z,850.60
2023-01-17T02:32:49.456Z,850.59
2023-01-17T02:33:01.386Z,850.66
2023-01-17T02:33:12.444Z,850.47
2023-01-17T02:33:24.460Z,850.58
2023-01-17T02:33:36.375Z,850.72
2023-01-17T02:33:48.394Z,850.59
2023-01-17T02:35:06.435Z,849.96
2023-01-17T02:35:17.391Z,849.95
2023-01-17T02:35:29.394Z,849.92
2023-01-17T02:35:41.412Z,850.30
2023-01-17T02:35:52.370Z,850.49
2023-01-17T02:36:03.440Z,850.16
2023-01-17T02:36:15.388Z,849.92
2023-01-17T02:36:27.407Z,849.86
2023-01-17T02:36:39.409Z,850.14
2023-01-17T02:36:51.415Z,850.29
2023-01-17T02:37:03.431Z,850.16
2023-01-17T02:37:15.443Z,850.40
2023-01-17T02:37:27.426Z,850.28
2023-01-17T02:37:39.438Z,850.14
2023-01-17T02:37:50.408Z,849.93
2023-01-17T02:38:01.371Z,850.08
2023-01-17T02:39:24.388Z,850.04
2023-01-17T02:39:35.441Z,849.73
2023-01-17T02:39:46.426Z,849.69
2023-01-17T02:39:57.379Z,849.34
2023-01-17T02:40:08.444Z,849.20
2023-01-17T02:40:20.455Z,849.11
2023-01-17T02:40:32.481Z,849.06
2023-01-17T02:40:44.387Z,849.41
2023-01-17T02:40:55.451Z,849.80
2023-01-17T02:41:07.374Z,849.45
2023-01-17T02:41:19.380Z,849.54
2023-01-17T02:41:31.381Z,849.51
2023-01-17T02:41:43.417Z,848.94
2023-01-17T02:41:54.363Z,848.92
2023-01-17T02:42:05.411Z,848.94
2023-01-17T02:42:16.380Z,849.38
2023-01-17T02:43:39.432Z,849.23
2023-01-17T02:43:50.396Z,849.27
2023-01-17T02:44:02.394Z,849.30
2023-01-17T02:44:13.454Z,849.25
2023-01-17T02:44:25.353Z,849.04
2023-01-17T02:44:36.408Z,849.19
2023-01-17T02:44:48.412Z,848.94
2023-01-17T02:46:53.403Z,848.40
2023-01-17T02:47:05.418Z,848.30
2023-01-17T02:47:17.425Z,848.15
2023-01-17T02:47:29.450Z,848.11
2023-01-17T02:47:41.447Z,847.99
2023-01-17T02:47:53.451Z,848.07
2023-01-17T02:48:05.360Z,848.11
2023-01-17T02:48:16.407Z,848.02
2023-01-17T02:48:27.389Z,848.01
2023-01-17T02:48:39.394Z,848.09
2023-01-17T02:48:51.423Z,848.19
2023-01-17T02:49:02.389Z,848.21
2023-01-17T02:49:13.452Z,848.44
2023-01-17T02:49:25.373Z,848.22
2023-01-17T02:49:37.388Z,848.35
2023-01-17T02:49:49.393Z,848.37
2023-01-17T02:59:23.413Z,846.69
2023-01-17T02:59:35.424Z,846.54
2023-01-17T02:59:46.388Z,846.96
2023-01-17T03:03:31.407Z,846.29
2023-01-17T03:03:42.359Z,846.07
2023-01-17T03:03:53.442Z,846.07
2023-01-17T03:04:04.388Z,845.96
2023-01-17T03:04:16.395Z,845.76
2023-01-17T03:04:27.361Z,845.69
2023-01-17T03:04:38.429Z,845.58
2023-01-17T03:04:50.377Z,845.96
2023-01-17T03:05:01.436Z,845.84
2023-01-17T03:05:12.399Z,845.41
2023-01-17T03:05:23.354Z,845.23
2023-01-17T03:05:34.395Z,845.19
2023-01-17T03:05:45.357Z,844.92
2023-01-17T03:05:56.423Z,845.08
2023-01-17T03:06:08.442Z,845.58
2023-01-17T03:06:20.355Z,845.23
2023-01-17T03:06:31.413Z,845.51
2023-01-17T03:06:43.424Z,845.22
2023-01-17T03:06:55.449Z,845.01
2023-01-17T03:07:06.416Z,845.19
2023-01-17T03:07:18.407Z,845.19
2023-01-17T03:07:29.389Z,845.34
2023-01-17T03:07:40.441Z,845.26
2023-01-17T03:07:51.398Z,845.28
2023-01-17T03:11:36.376Z,844.30
2023-01-17T03:11:48.383Z,844.20
2023-01-17T03:12:00.409Z,844.46
2023-01-17T03:14:53.376Z,844.09
2023-01-17T03:15:04.442Z,844.05
2023-01-17T03:22:08.440Z,843.97
2023-01-17T03:22:19.400Z,844.02
2023-01-17T03:22:30.375Z,844.18
2023-01-17T03:22:42.378Z,844.29
2023-01-17T03:22:54.390Z,844.18
2023-01-17T03:23:06.394Z,844.03
2023-01-17T03:23:17.383Z,843.82
2023-01-17T03:23:29.398Z,843.78
2023-01-17T03:23:40.467Z,843.60
2023-01-17T03:23:52.384Z,843.95
2023-01-17T03:24:04.398Z,844.51
2023-01-17T03:24:16.414Z,844.55
2023-01-17T03:24:28.430Z,843.87
2023-01-17T03:24:40.426Z,843.77
2023-01-17T03:24:52.466Z,843.91
2023-01-17T03:25:04.356Z,843.91
2023-01-17T03:35:43.395Z,845.16
2023-01-17T03:35:54.364Z,844.54
2023-01-17T03:36:05.398Z,844.01
2023-01-17T03:36:17.397Z,843.36
2023-01-17T03:36:28.391Z,843.50
2023-01-17T03:41:20.384Z,843.24
2023-01-17T03:41:31.447Z,843.50
2023-01-17T03:41:42.404Z,843.69
2023-01-17T03:41:54.406Z,843.57
2023-01-17T03:44:40.444Z,842.89
2023-01-17T03:44:52.350Z,843.29
2023-01-17T03:45:03.404Z,843.46
2023-01-17T03:45:15.406Z,843.25
2023-01-17T03:45:26.372Z,843.18
2023-01-17T03:45:38.412Z,843.21
2023-01-17T03:45:49.431Z,843.24
2023-01-17T03:46:00.460Z,843.17
2023-01-17T03:46:11.424Z,842.99
2023-01-17T03:46:22.403Z,842.86
2023-01-17T03:46:33.355Z,843.06
2023-01-17T03:46:44.397Z,843.02
2023-01-17T03:46:55.350Z,842.92
2023-01-17T03:47:06.409Z,842.65
2023-01-17T03:47:17.388Z,843.26
2023-01-17T03:47:29.389Z,843.17
2023-01-17T03:47:40.355Z,842.95
2023-01-17T03:47:51.405Z,843.13
2023-01-17T03:48:02.363Z,843.25
2023-01-17T03:48:13.433Z,843.10
2023-01-17T03:48:25.372Z,842.23
2023-01-17T03:48:36.428Z,842.74
2023-01-17T03:48:47.393Z,842.88
2023-01-17T03:48:59.379Z,842.95
2023-01-17T03:49:10.394Z,842.85
2023-01-17T03:49:22.405Z,842.62
2023-01-17T03:49:34.415Z,842.43
2023-01-17T03:49:46.429Z,842.97
2023-01-17T03:49:58.372Z,842.80
2023-01-17T03:50:09.430Z,842.82
2023-01-17T03:50:20.395Z,842.72
2023-01-17T03:50:32.405Z,842.64
2023-01-17T03:50:43.367Z,842.59
2023-01-17T03:50:54.435Z,842.45
2023-01-17T03:51:06.443Z,842.44
2023-01-17T03:51:18.442Z,842.61
2023-01-17T03:51:30.359Z,842.43
2023-01-17T03:51:41.435Z,842.30
2023-01-17T03:51:53.448Z,842.27
2023-01-17T03:52:05.403Z,842.38
2023-01-17T03:52:16.365Z,842.51
2023-01-17T03:52:27.428Z,842.40
2023-01-17T03:52:38.396Z,842.35
2023-01-17T03:52:50.408Z,842.38
2023-01-17T03:53:01.372Z,842.39
2023-01-17T03:53:13.376Z,842.44
2023-01-17T03:53:25.372Z,842.50
2023-01-17T03:53:36.442Z,842.36
2023-01-17T03:53:48.400Z,842.37
2023-01-17T03:53:59.402Z,842.42
2023-01-17T03:54:10.352Z,842.40
2023-01-17T03:54:21.416Z,842.11
2023-01-17T03:54:33.406Z,842.05
2023-01-17T03:54:45.427Z,842.36
2023-01-17T03:54:57.458Z,842.20
2023-01-17T03:55:08.405Z,842.13
2023-01-17T03:55:19.376Z,842.11
2023-01-17T03:55:31.385Z,841.97
2023-01-17T03:55:43.394Z,841.63
2023-01-17T03:55:55.395Z,841.95
2023-01-17T03:56:07.415Z,842.12
2023-01-17T03:56:19.424Z,841.95
2023-01-17T03:56:31.454Z,841.82
2023-01-17T03:56:43.367Z,842.04
2023-01-17T03:56:54.374Z,841.85
2023-01-17T03:57:05.437Z,841.75
2023-01-17T03:57:16.394Z,841.60
2023-01-17T03:57:27.349Z,841.75
2023-01-17T03:57:38.405Z,841.59
2023-01-17T04:04:55.420Z,841.06
2023-01-17T04:05:07.421Z,841.09
2023-01-17T04:05:19.423Z,841.02
2023-01-17T04:05:31.437Z,840.97
2023-01-17T04:05:42.418Z,840.91
2023-01-17T04:05:53.391Z,840.91
2023-01-17T04:06:04.445Z,840.75
2023-01-17T04:06:15.406Z,840.40
2023-01-17T04:06:26.366Z,840.94
2023-01-17T04:06:38.370Z,841.25
2023-01-17T04:06:50.380Z,840.87
2023-01-17T04:07:02.392Z,841.19
2023-01-17T04:07:13.355Z,841.23
2023-01-17T04:07:24.410Z,841.22
2023-01-17T04:07:36.421Z,841.37
2023-01-17T04:07:48.445Z,841.36
2023-01-17T04:08:00.450Z,841.03
2023-01-17T04:08:11.411Z,841.00
2023-01-17T04:08:23.422Z,841.25
2023-01-17T04:08:34.385Z,841.07
2023-01-17T04:08:45.446Z,840.97
2023-01-17T04:08:57.361Z,840.86
2023-01-17T04:09:08.428Z,841.08
2023-01-17T04:09:20.432Z,841.18
2023-01-17T04:09:31.400Z,841.11
2023-01-17T04:09:43.409Z,840.94
2023-01-17T04:09:55.411Z,840.97
2023-01-17T04:10:07.421Z,841.01
2023-01-17T04:10:19.431Z,841.37
2023-01-17T04:10:31.455Z,840.74
2023-01-17T04:10:42.397Z,841.27
2023-01-17T04:10:54.421Z,841.19
2023-01-17T04:11:05.378Z,841.00
2023-01-17T04:11:17.379Z,840.95
2023-01-17T04:11:28.448Z,840.93
2023-01-17T04:11:40.367Z,840.88
2023-01-17T04:11:52.377Z,841.33
2023-01-17T04:12:04.392Z,841.47
2023-01-17T04:12:16.408Z,841.38
2023-01-17T04:12:27.373Z,841.31
2023-01-17T04:12:38.425Z,841.52
2023-01-17T04:12:50.444Z,841.48
2023-01-17T04:13:02.361Z,841.50
2023-01-17T04:13:13.398Z,841.20
2023-01-17T04:13:24.387Z,841.33
2023-01-17T04:13:35.457Z,841.30
2023-01-17T04:13:46.403Z,841.74
2023-01-17T04:13:57.379Z,841.66
2023-01-17T04:14:08.363Z,841.29
2023-01-17T04:14:19.405Z,841.39
2023-01-17T04:14:31.426Z,841.62
2023-01-17T04:14:42.385Z,841.50
2023-01-17T04:14:54.399Z,841.40
2023-01-17T04:15:05.363Z,841.50
2023-01-17T04:15:17.377Z,841.65
2023-01-17T04:18:31.389Z,841.14
2023-01-17T04:18:42.348Z,840.84
2023-01-17T04:18:53.405Z,841.16
2023-01-17T04:19:05.413Z,841.03
2023-01-17T04:19:16.377Z,840.93
2023-01-17T04:19:27.424Z,840.93
2023-01-17T04:19:38.386Z,840.81
2023-01-17T04:19:49.353Z,840.92
2023-01-17T04:20:00.409Z,840.69
2023-01-17T04:20:11.364Z,841.01
2023-01-17T04:20:23.385Z,841.06
2023-01-17T04:20:35.391Z,840.91
2023-01-17T04:20:47.401Z,841.18
2023-01-17T04:20:58.361Z,840.99
2023-01-17T04:21:10.364Z,840.84
2023-01-17T04:21:21.441Z,841.22
2023-01-17T04:21:33.447Z,841.03
2023-01-17T04:21:53.179Z,840.86
2023-01-17T04:21:56.445Z,841.19
2023-01-17T04:22:08.353Z,841.14
2023-01-17T04:30:03.448Z,840.17
2023-01-17T04:30:14.399Z,839.96
2023-01-17T04:30:26.430Z,840.05
2023-01-17T04:30:37.429Z,840.00
2023-01-17T04:30:48.426Z,840.10
2023-01-17T04:32:09.417Z,839.77
2023-01-17T04:32:20.375Z,839.86
2023-01-17T04:32:32.393Z,839.98
2023-01-17T04:32:44.392Z,840.00
2023-01-17T04:32:56.413Z,839.99
2023-01-17T04:33:07.381Z,839.93
2023-01-17T04:33:18.349Z,840.17
2023-01-17T04:33:29.405Z,840.28
2023-01-17T04:33:41.407Z,840.05
2023-01-17T04:33:52.405Z,839.94
2023-01-17T04:34:03.351Z,840.03
2023-01-17T04:34:14.345Z,840.20
2023-01-17T04:41:45.416Z,839.35
2023-01-17T04:41:57.422Z,839.34
2023-01-17T04:42:09.437Z,838.64
2023-01-17T04:42:21.428Z,838.53
2023-01-17T04:42:33.433Z,839.06
2023-01-17T04:42:45.352Z,838.21
2023-01-17T04:42:56.419Z,838.90
2023-01-17T04:43:07.374Z,839.28
2023-01-17T04:44:26.426Z,838.72
2023-01-17T04:44:37.383Z,838.80
2023-01-17T04:44:49.396Z,838.96
2023-01-17T04:45:00.354Z,839.00
2023-01-17T04:45:11.365Z,838.88
2023-01-17T04:45:22.438Z,838.89
2023-01-17T04:45:33.407Z,839.46
2023-01-17T04:45:44.357Z,839.57
2023-01-17T04:45:56.436Z,839.10
2023-01-17T04:46:07.476Z,838.86
2023-01-17T04:46:19.399Z,838.92
2023-01-17T04:52:05.398Z,837.85
2023-01-17T04:52:16.347Z,837.58
2023-01-17T04:52:27.419Z,837.85
2023-01-17T04:52:39.429Z,837.73
2023-01-17T05:04:07.370Z,836.73
2023-01-17T05:04:18.413Z,836.79
2023-01-17T05:04:30.427Z,836.72
2023-01-17T05:04:42.435Z,836.50
2023-01-17T05:04:54.440Z,836.64
2023-01-17T05:05:06.352Z,836.66
2023-01-17T05:05:17.417Z,836.57
2023-01-17T05:05:29.416Z,836.08
2023-01-17T05:05:40.366Z,836.00
2023-01-17T05:05:51.432Z,836.12
2023-01-17T05:06:02.393Z,836.35
2023-01-17T05:06:14.410Z,836.25
2023-01-17T05:06:26.410Z,836.17
2023-01-17T05:06:38.428Z,836.13
2023-01-17T05:06:49.390Z,835.72
2023-01-17T05:07:00.353Z,836.37
2023-01-17T05:07:11.401Z,836.70
2023-01-17T05:07:22.355Z,837.00
2023-01-17T05:07:35.662Z,836.50
2023-01-17T05:07:45.375Z,836.48
2023-01-17T05:07:57.369Z,836.56
2023-01-17T05:08:09.373Z,836.24
2023-01-17T05:08:21.369Z,835.90
2023-01-17T05:08:32.350Z,835.73
2023-01-17T05:08:43.395Z,836.28